createdAt,value
2019-02-23T00:01:06.870Z,19.93
2019-02-23T00:05:19.197Z,19.13
2019-02-23T00:09:32.267Z,21.80
2019-02-23T00:13:44.716Z,20.20
2019-02-23T00:17:57.541Z,22.27
2019-02-23T00:22:09.996Z,19.53
2019-02-23T00:26:22.401Z,20.17
2019-02-23T00:30:35.298Z,20.23
2019-02-23T00:34:47.749Z,20.63
2019-02-23T00:39:02.585Z,21.67
2019-02-23T00:43:15.812Z,25.50
2019-02-23T00:47:28.439Z,21.73
2019-02-23T00:51:41.570Z,22.87
2019-02-23T00:55:54.029Z,25.27
2019-02-23T01:00:07.109Z,23.67
2019-02-23T01:04:19.568Z,25.27
2019-02-23T01:08:32.008Z,24.17
2019-02-23T01:12:44.932Z,24.77
2019-02-23T01:16:57.338Z,18.77
2019-02-23T01:21:10.320Z,23.57
2019-02-23T01:25:22.871Z,23.17
2019-02-23T01:29:35.297Z,23.10
2019-02-23T01:33:48.177Z,23.63
2019-02-23T01:38:00.639Z,23.20
2019-02-23T01:42:13.337Z,23.50
2019-02-23T01:46:25.981Z,25.43
2019-02-23T01:50:38.788Z,25.50
2019-02-23T01:54:51.592Z,24.57
2019-02-23T01:59:03.940Z,22.23
2019-02-23T02:03:16.245Z,26.67
2019-02-23T02:07:28.566Z,25.70
2019-02-23T02:11:41.915Z,25.70
2019-02-23T02:15:54.490Z,21.57
2019-02-23T02:20:11.131Z,26.17
2019-02-23T02:24:21.199Z,21.43
2019-02-23T02:28:33.512Z,21.77
2019-02-23T02:32:46.401Z,21.20
2019-02-23T02:36:58.865Z,23.90
2019-02-23T02:41:11.376Z,21.97
2019-02-23T02:45:24.148Z,25.63
2019-02-23T02:49:36.612Z,22.80
2019-02-23T02:53:48.933Z,27.17
2019-02-23T02:58:01.817Z,24.40
2019-02-23T03:02:14.275Z,22.20
2019-02-23T03:06:26.681Z,27.70
2019-02-23T03:10:39.578Z,24.30
2019-02-23T03:14:52.027Z,25.33
2019-02-23T03:19:04.407Z,22.67
2019-02-23T03:23:16.704Z,22.73
2019-02-23T03:27:29.441Z,20.30
2019-02-23T03:31:41.906Z,22.10
2019-02-23T03:35:54.323Z,22.63
2019-02-23T03:40:07.821Z,19.37
2019-02-23T03:44:20.768Z,22.90
2019-02-23T03:48:33.273Z,24.20
2019-02-23T03:52:46.084Z,23.90
2019-02-23T03:56:58.569Z,28.67
2019-02-23T04:01:10.919Z,21.93
2019-02-23T04:05:23.772Z,25.13
2019-02-23T04:09:36.420Z,23.37
2019-02-23T04:13:48.713Z,26.87
2019-02-23T04:18:01.029Z,27.23
2019-02-23T04:22:13.984Z,26.17
2019-02-23T04:26:26.488Z,27.60
2019-02-23T04:30:39.466Z,26.20
2019-02-23T04:34:52.023Z,25.43
2019-02-23T04:39:04.991Z,28.63
2019-02-23T04:43:17.788Z,28.77
2019-02-23T04:47:30.255Z,24.07
2019-02-23T04:51:43.256Z,25.30
2019-02-23T04:55:55.737Z,27.83
2019-02-23T05:00:09.148Z,29.57
2019-02-23T05:04:21.493Z,30.03
2019-02-23T05:08:33.800Z,29.37
2019-02-23T05:12:46.588Z,26.67
2019-02-23T05:16:59.048Z,29.50
2019-02-23T05:21:11.383Z,26.23
2019-02-23T05:25:23.843Z,28.63
2019-02-23T05:29:36.568Z,26.37
2019-02-23T05:33:48.966Z,29.80
2019-02-23T05:38:01.330Z,27.80
2019-02-23T05:42:14.321Z,30.83
2019-02-23T05:46:26.825Z,28.90
2019-02-23T05:50:39.766Z,27.13
2019-02-23T05:54:52.288Z,27.23
2019-02-23T05:59:05.314Z,25.40
2019-02-23T06:03:17.780Z,26.27
2019-02-23T06:07:30.184Z,25.73
2019-02-23T06:11:43.079Z,25.50
2019-02-23T06:15:55.532Z,30.27
2019-02-23T06:20:08.332Z,29.07
2019-02-23T06:24:20.982Z,29.63
2019-02-23T06:28:33.447Z,32.70
2019-02-23T06:32:46.392Z,29.20
2019-02-23T06:36:58.841Z,27.47
2019-02-23T06:41:11.932Z,27.37
2019-02-23T06:45:24.600Z,28.13
2019-02-23T06:49:37.064Z,26.17
2019-02-23T06:53:49.791Z,26.30
2019-02-23T06:58:02.312Z,31.40
2019-02-23T07:02:15.043Z,29.77
2019-02-23T07:06:27.490Z,28.63
2019-02-23T07:10:40.008Z,31.73
2019-02-23T07:14:52.420Z,28.20
2019-02-23T07:19:05.309Z,29.97
2019-02-23T07:23:17.773Z,32.10
2019-02-23T07:27:30.149Z,26.67
2019-02-23T07:31:42.972Z,25.17
2019-02-23T07:35:55.317Z,31.77
2019-02-23T07:40:08.041Z,33.40
2019-02-23T07:44:20.841Z,32.07
2019-02-23T07:48:33.348Z,33.93
2019-02-23T07:52:45.698Z,33.23
2019-02-23T07:56:58.634Z,32.90
2019-02-23T08:01:11.109Z,29.47
2019-02-23T08:05:23.928Z,32.20
2019-02-23T08:09:36.493Z,30.10
2019-02-23T08:13:48.909Z,32.30
2019-02-23T08:18:01.688Z,31.80
2019-02-23T08:22:15.224Z,29.40
2019-02-23T08:26:27.697Z,29.13
2019-02-23T08:30:40.752Z,30.13
2019-02-23T08:34:53.241Z,29.60
2019-02-23T08:39:05.834Z,30.37
2019-02-23T08:43:20.686Z,26.93
2019-02-23T08:47:32.671Z,31.37
2019-02-23T08:51:45.724Z,31.13
2019-02-23T08:55:58.280Z,30.03
2019-02-23T09:00:13.197Z,26.83
2019-02-23T09:04:25.637Z,28.60
2019-02-23T09:08:38.456Z,27.10
2019-02-23T09:12:50.916Z,29.27
2019-02-23T09:17:03.323Z,27.77
2019-02-23T09:21:16.119Z,28.90
2019-02-23T09:25:28.574Z,29.30
2019-02-23T09:29:42.113Z,26.67
2019-02-23T09:33:54.615Z,24.50
2019-02-23T09:38:07.417Z,27.83
2019-02-23T09:42:19.989Z,28.13
2019-02-23T09:46:32.492Z,28.47
2019-02-23T09:50:45.444Z,26.27
2019-02-23T09:54:57.840Z,28.63
2019-02-23T09:59:10.924Z,24.17
2019-02-23T10:03:23.386Z,25.20
2019-02-23T10:07:35.868Z,22.43
2019-02-23T10:11:49.260Z,22.73
2019-02-23T10:16:01.705Z,23.77
2019-02-23T10:20:14.459Z,25.23
2019-02-23T10:24:26.896Z,21.07
2019-02-23T10:28:39.304Z,24.30
2019-02-23T10:32:52.172Z,22.93
2019-02-23T10:37:04.773Z,26.33
2019-02-23T10:41:17.741Z,23.07
2019-02-23T10:45:30.441Z,26.00
2019-02-23T10:49:42.825Z,24.60
2019-02-23T10:53:55.236Z,24.40
2019-02-23T10:58:08.094Z,26.70
2019-02-23T11:02:21.445Z,25.13
2019-02-23T11:06:34.888Z,26.23
2019-02-23T11:10:47.633Z,25.10
2019-02-23T11:14:59.978Z,23.73
2019-02-23T11:19:12.867Z,22.53
2019-02-23T11:23:25.326Z,21.50
2019-02-23T11:27:37.843Z,28.60
2019-02-23T11:31:50.616Z,22.80
2019-02-23T11:36:02.986Z,22.90
2019-02-23T11:40:16.061Z,26.10
2019-02-23T11:44:28.637Z,23.53
2019-02-23T11:48:41.201Z,24.60
2019-02-23T11:52:53.971Z,21.60
2019-02-23T11:57:06.393Z,23.90
2019-02-23T12:01:19.376Z,24.37
2019-02-23T12:05:31.945Z,26.40
2019-02-23T12:09:44.351Z,24.10
2019-02-23T12:13:57.301Z,27.63
2019-02-23T12:18:09.798Z,28.50
2019-02-23T12:22:22.204Z,46.63
2019-02-23T12:26:34.625Z,31.00
2019-02-23T12:30:47.408Z,29.00
2019-02-23T12:34:59.973Z,29.17
2019-02-23T12:39:12.972Z,26.57
2019-02-23T12:43:25.495Z,28.73
2019-02-23T12:47:37.900Z,27.10
2019-02-23T12:51:50.816Z,27.83
2019-02-23T12:56:03.168Z,24.43
2019-02-23T13:00:16.163Z,29.57
2019-02-23T13:04:28.824Z,26.97
2019-02-23T13:09:15.096Z,26.57
2019-02-23T13:14:14.395Z,27.10
2019-02-23T13:19:05.081Z,26.93
2019-02-23T13:23:37.405Z,31.17
2019-02-23T13:28:26.173Z,27.73
2019-02-23T13:33:07.559Z,29.00
2019-02-23T13:37:59.056Z,31.87
2019-02-23T13:42:37.991Z,29.77
2019-02-23T13:47:26.720Z,30.70
2019-02-23T13:52:06.729Z,32.60
2019-02-23T13:57:01.021Z,31.50
2019-02-23T14:02:03.101Z,30.60
2019-02-23T14:06:43.974Z,32.90
2019-02-23T14:11:48.568Z,33.13
2019-02-23T14:16:41.541Z,37.73
2019-02-23T14:21:45.104Z,32.17
2019-02-23T14:26:17.420Z,34.13
2019-02-23T14:30:57.241Z,35.27
2019-02-23T14:35:30.850Z,36.30
2019-02-23T14:40:19.633Z,31.67
2019-02-23T14:45:11.983Z,32.83
2019-02-23T14:49:49.858Z,31.03
2019-02-23T14:54:17.180Z,38.77
2019-02-23T14:59:11.114Z,35.97
2019-02-23T15:04:11.324Z,36.47
2019-02-23T15:08:59.628Z,34.93
2019-02-23T15:13:45.731Z,36.90
2019-02-23T15:18:37.004Z,34.00
2019-02-23T15:23:26.560Z,30.23
2019-02-23T15:28:09.705Z,32.63
2019-02-23T15:32:50.557Z,38.97
2019-02-23T15:37:34.011Z,29.27
2019-02-23T15:42:18.419Z,40.10
2019-02-23T15:47:03.861Z,37.33
2019-02-23T15:51:16.456Z,40.50
2019-02-23T15:55:29.972Z,39.47
2019-02-23T15:59:44.482Z,43.63
2019-02-23T16:03:57.192Z,36.60
2019-02-23T16:08:10.068Z,31.77
2019-02-23T16:12:22.632Z,32.00
2019-02-23T16:16:35.037Z,33.47
2019-02-23T16:20:47.932Z,36.00
2019-02-23T16:25:00.557Z,39.60
2019-02-23T16:29:13.477Z,39.63
2019-02-23T16:33:26.034Z,42.97
2019-02-23T16:37:38.447Z,36.63
2019-02-23T16:41:51.341Z,40.27
2019-02-23T16:46:03.901Z,42.53
2019-02-23T16:50:17.004Z,33.90
2019-02-23T16:54:29.621Z,34.13
2019-02-23T16:58:41.855Z,31.97
2019-02-23T17:02:54.641Z,35.70
2019-02-23T17:07:07.204Z,35.30
2019-02-23T17:11:20.096Z,34.80
2019-02-23T17:15:32.826Z,37.67
2019-02-23T17:19:45.806Z,39.20
2019-02-23T17:23:58.543Z,40.77
2019-02-23T17:28:11.024Z,41.60
2019-02-23T17:32:23.712Z,36.50
2019-02-23T17:36:36.260Z,33.50
2019-02-23T17:40:48.570Z,40.07
2019-02-23T17:45:00.889Z,39.87
2019-02-23T17:49:13.785Z,36.70
2019-02-23T17:53:26.234Z,36.97
2019-02-23T17:57:38.721Z,40.40
2019-02-23T18:01:51.433Z,38.27
2019-02-23T18:06:04.004Z,32.03
2019-02-23T18:10:16.881Z,36.50
2019-02-23T18:14:29.978Z,42.37
2019-02-23T18:18:42.734Z,38.60
2019-02-23T18:22:55.187Z,32.37
2019-02-23T18:27:08.539Z,36.60
2019-02-23T18:31:22.245Z,46.17
2019-02-23T18:35:34.685Z,35.37
2019-02-23T18:39:47.592Z,39.17
2019-02-23T18:44:00.277Z,36.30
2019-02-23T18:48:13.024Z,31.63
2019-02-23T18:52:25.685Z,34.40
2019-02-23T18:56:38.571Z,35.03
2019-02-23T19:00:51.184Z,47.40
2019-02-23T19:05:04.019Z,42.43
2019-02-23T19:09:16.468Z,39.00
2019-02-23T19:13:28.958Z,42.60
2019-02-23T19:17:41.799Z,43.87
2019-02-23T19:21:54.371Z,36.03
2019-02-23T19:26:08.618Z,49.40
2019-02-23T19:30:22.169Z,53.40
2019-02-23T19:34:34.928Z,56.63
2019-02-23T19:38:47.285Z,49.80
2019-02-23T19:43:00.157Z,57.93
2019-02-23T19:47:15.348Z,46.93
2019-02-23T19:51:27.904Z,48.40
2019-02-23T19:55:40.776Z,40.50
2019-02-23T19:59:53.246Z,43.60
2019-02-23T20:04:05.612Z,49.90
2019-02-23T20:08:18.441Z,44.23
2019-02-23T20:12:30.896Z,46.43
2019-02-23T20:16:43.299Z,45.77
2019-02-23T20:20:56.098Z,40.57
2019-02-23T20:25:08.658Z,50.93
2019-02-23T20:29:21.640Z,60.60
2019-02-23T20:33:34.369Z,60.67
2019-02-23T20:37:47.000Z,59.87
2019-02-23T20:41:59.649Z,64.23
2019-02-23T20:46:12.196Z,63.80
2019-02-23T20:50:25.501Z,60.17
2019-02-23T20:54:37.909Z,62.07
2019-02-23T20:58:50.704Z,63.83
2019-02-23T21:03:03.159Z,70.63
2019-02-23T21:07:15.839Z,65.13
2019-02-23T21:11:28.499Z,58.60
2019-02-23T21:15:40.918Z,47.03
2019-02-23T21:19:53.900Z,40.83
2019-02-23T21:24:06.491Z,37.80
2019-02-23T21:28:18.882Z,38.73
2019-02-23T21:32:31.659Z,32.60
2019-02-23T21:36:44.222Z,32.57
2019-02-23T21:40:57.212Z,29.90
2019-02-23T21:45:09.765Z,27.13
2019-02-23T21:49:22.115Z,31.67
2019-02-23T21:53:35.073Z,23.80
2019-02-23T21:57:47.540Z,29.43
2019-02-23T22:02:00.520Z,28.37
2019-02-23T22:06:13.088Z,29.97
2019-02-23T22:10:25.674Z,26.50
2019-02-23T22:14:38.383Z,28.80
2019-02-23T22:18:50.836Z,27.17
2019-02-23T22:23:03.261Z,28.07
2019-02-23T22:27:16.035Z,33.60
2019-02-23T22:31:28.601Z,26.80
2019-02-23T22:35:41.018Z,31.73
2019-02-23T22:39:53.985Z,26.73
2019-02-23T22:44:06.461Z,26.20
2019-02-23T22:48:19.449Z,29.47
2019-02-23T22:52:32.065Z,26.63
2019-02-23T22:56:44.892Z,29.23
2019-02-23T23:01:01.429Z,30.97
2019-02-23T23:05:14.270Z,29.60
2019-02-23T23:09:27.261Z,31.83
2019-02-23T23:13:39.893Z,26.40
2019-02-23T23:17:53.422Z,26.77
2019-02-23T23:22:06.524Z,27.30
2019-02-23T23:26:19.111Z,30.10
2019-02-23T23:30:31.993Z,27.27
2019-02-23T23:34:44.551Z,24.37
2019-02-23T23:38:56.974Z,28.73
2019-02-23T23:43:09.451Z,25.43
2019-02-23T23:47:22.229Z,28.63
2019-02-23T23:51:34.856Z,27.67
2019-02-23T23:55:47.829Z,27.03
